createdAt,value
2022-08-22T00:01:07.605Z,17.18
2022-08-22T00:02:46.390Z,18.60
2022-08-22T00:03:04.820Z,18.82
2022-08-22T00:03:58.591Z,17.22
2022-08-22T00:06:41.532Z,17.22
2022-08-22T00:09:24.564Z,17.22
2022-08-22T00:12:03.726Z,16.96
2022-08-22T00:14:35.888Z,17.07
2022-08-22T00:17:22.262Z,17.04
2022-08-22T00:20:08.904Z,16.96
2022-08-22T00:22:51.146Z,16.96
2022-08-22T00:25:40.163Z,16.97
2022-08-22T00:28:21.848Z,17.05
2022-08-22T00:31:01.156Z,16.97
2022-08-22T00:33:47.870Z,16.96
2022-08-22T00:36:17.173Z,16.94
2022-08-22T00:38:54.611Z,16.89
2022-08-22T00:41:50.624Z,16.80
2022-08-22T00:44:37.560Z,16.75
2022-08-22T00:47:42.456Z,16.78
2022-08-22T00:50:46.446Z,16.80
2022-08-22T00:53:25.708Z,16.81
2022-08-22T00:56:27.606Z,16.89
2022-08-22T00:59:33.168Z,16.74
2022-08-22T01:02:31.813Z,16.62
2022-08-22T01:05:19.416Z,16.56
2022-08-22T01:08:03.773Z,16.51
2022-08-22T01:11:05.123Z,16.45
2022-08-22T01:13:53.500Z,16.42
2022-08-22T01:16:58.396Z,16.48
2022-08-22T01:19:49.752Z,16.37
2022-08-22T01:22:19.032Z,16.37
2022-08-22T01:25:22.626Z,16.22
2022-08-22T01:28:30.362Z,16.27
2022-08-22T01:31:22.810Z,16.28
2022-08-22T01:34:17.060Z,16.25
2022-08-22T01:37:13.850Z,16.12
2022-08-22T01:40:17.645Z,16.00
2022-08-22T01:43:10.659Z,16.01
2022-08-22T01:45:52.488Z,15.99
2022-08-22T01:49:00.645Z,16.07
2022-08-22T01:51:29.645Z,15.95
2022-08-22T01:54:11.233Z,15.78
2022-08-22T01:56:45.779Z,15.90
2022-08-22T01:59:20.641Z,15.87
2022-08-22T02:02:28.001Z,15.86
2022-08-22T02:05:46.466Z,15.77
2022-08-22T02:08:21.829Z,15.76
2022-08-22T02:11:02.885Z,15.75
2022-08-22T02:13:46.320Z,15.70
2022-08-22T02:16:23.589Z,15.49
2022-08-22T02:19:04.578Z,15.61
2022-08-22T02:21:53.860Z,15.65
2022-08-22T02:24:32.695Z,15.64
2022-08-22T02:27:31.509Z,15.38
2022-08-22T02:30:04.303Z,15.43
2022-08-22T02:32:40.046Z,15.52
2022-08-22T02:35:06.642Z,15.53
2022-08-22T02:38:18.085Z,15.57
2022-08-22T02:40:48.267Z,15.59
2022-08-22T02:43:39.489Z,15.55
2022-08-22T02:46:43.478Z,15.39
2022-08-22T02:49:17.979Z,15.43
2022-08-22T02:52:14.541Z,15.49
2022-08-22T02:55:00.983Z,15.23
2022-08-22T02:57:40.280Z,15.26
2022-08-22T03:00:31.334Z,15.36
2022-08-22T03:03:05.664Z,15.39
2022-08-22T03:05:38.248Z,15.43
2022-08-22T03:08:17.091Z,15.21
2022-08-22T03:11:06.129Z,15.07
2022-08-22T03:13:58.878Z,15.11
2022-08-22T03:16:35.978Z,15.18
2022-08-22T03:19:18.323Z,15.21
2022-08-22T03:21:58.025Z,15.16
2022-08-22T03:24:31.767Z,15.01
2022-08-22T03:27:08.957Z,15.08
2022-08-22T03:29:47.921Z,15.01
2022-08-22T03:32:19.087Z,15.02
2022-08-22T03:35:03.077Z,14.97
2022-08-22T03:37:35.599Z,14.95
2022-08-22T03:40:22.937Z,15.06
2022-08-22T03:43:12.542Z,15.09
2022-08-22T03:45:54.661Z,15.16
2022-08-22T03:48:56.923Z,14.86
2022-08-22T03:51:41.068Z,14.83
2022-08-22T03:54:22.648Z,14.90
2022-08-22T03:57:10.311Z,15.03
2022-08-22T04:00:19.101Z,15.08
2022-08-22T04:03:21.898Z,15.10
2022-08-22T04:06:17.721Z,15.12
2022-08-22T04:09:04.772Z,15.20
2022-08-22T04:12:08.948Z,15.27
2022-08-22T04:15:24.400Z,15.07
2022-08-22T04:17:58.844Z,15.04
2022-08-22T04:20:52.889Z,14.95
2022-08-22T04:23:44.587Z,15.17
2022-08-22T04:26:21.178Z,15.19
2022-08-22T04:29:06.406Z,15.26
2022-08-22T04:31:41.957Z,15.22
2022-08-22T04:34:40.137Z,15.22
2022-08-22T04:37:35.340Z,15.15
2022-08-22T04:40:04.893Z,15.22
2022-08-22T04:42:40.416Z,15.29
2022-08-22T04:45:17.021Z,15.27
2022-08-22T04:47:54.038Z,15.25
2022-08-22T04:51:03.207Z,15.29
2022-08-22T04:53:52.649Z,15.34
2022-08-22T04:56:57.900Z,15.27
2022-08-22T04:59:25.339Z,15.25
2022-08-22T05:02:00.340Z,15.33
2022-08-22T05:04:36.186Z,15.38
2022-08-22T05:07:10.322Z,15.43
2022-08-22T05:09:42.776Z,15.47
2022-08-22T05:12:14.691Z,15.55
2022-08-22T05:14:44.482Z,15.58
2022-08-22T05:17:16.998Z,15.42
2022-08-22T05:19:50.712Z,15.49
2022-08-22T05:22:27.685Z,15.32
2022-08-22T05:25:02.195Z,15.26
2022-08-22T05:27:42.135Z,15.23
2022-08-22T05:30:15.556Z,15.41
2022-08-22T05:33:12.192Z,15.56
2022-08-22T05:35:48.678Z,15.66
2022-08-22T05:38:21.762Z,15.81
2022-08-22T05:40:57.640Z,15.91
2022-08-22T05:43:26.345Z,15.91
2022-08-22T05:45:55.924Z,16.06
2022-08-22T05:48:33.441Z,15.99
2022-08-22T05:51:14.555Z,16.14
2022-08-22T05:53:45.478Z,16.07
2022-08-22T05:56:21.171Z,15.97
2022-08-22T05:58:50.354Z,16.01
2022-08-22T06:01:38.593Z,15.98
2022-08-22T06:04:26.172Z,15.92
2022-08-22T06:07:00.433Z,15.91
2022-08-22T06:09:34.917Z,15.97
2022-08-22T06:12:22.315Z,16.08
2022-08-22T06:15:14.758Z,16.28
2022-08-22T06:17:45.619Z,16.53
2022-08-22T06:20:19.323Z,16.71
2022-08-22T06:22:52.750Z,16.82
2022-08-22T06:25:28.042Z,16.95
2022-08-22T06:27:58.091Z,17.09
2022-08-22T06:30:28.662Z,17.16
2022-08-22T06:33:02.589Z,17.35
2022-08-22T06:35:55.294Z,17.53
2022-08-22T06:38:28.362Z,17.64
2022-08-22T06:40:58.075Z,17.65
2022-08-22T06:43:25.399Z,17.74
2022-08-22T06:45:53.226Z,17.80
2022-08-22T06:48:23.659Z,18.02
2022-08-22T06:50:57.209Z,18.11
2022-08-22T06:53:28.691Z,18.37
2022-08-22T06:55:59.326Z,18.63
2022-08-22T06:58:34.740Z,18.89
2022-08-22T07:01:12.906Z,19.15
2022-08-22T07:03:47.227Z,19.53
2022-08-22T07:06:21.075Z,19.89
2022-08-22T07:08:53.707Z,20.18
2022-08-22T07:11:30.220Z,20.54
2022-08-22T07:14:05.718Z,20.85
2022-08-22T07:16:56.071Z,21.26
2022-08-22T07:19:31.915Z,21.51
2022-08-22T07:22:01.345Z,21.85
2022-08-22T07:24:31.741Z,22.29
2022-08-22T07:27:18.560Z,22.63
2022-08-22T07:29:53.071Z,23.06
2022-08-22T07:32:28.929Z,23.38
2022-08-22T07:35:04.520Z,23.49
2022-08-22T07:38:00.809Z,23.85
2022-08-22T07:40:33.743Z,23.94
2022-08-22T07:43:27.988Z,24.07
2022-08-22T07:46:20.977Z,24.11
2022-08-22T07:49:08.582Z,24.23
2022-08-22T07:51:50.611Z,24.40
2022-08-22T07:54:31.717Z,24.42
2022-08-22T07:57:11.099Z,24.33
2022-08-22T07:59:47.256Z,24.47
2022-08-22T08:02:17.354Z,24.49
2022-08-22T08:04:45.004Z,24.61
2022-08-22T08:07:15.876Z,24.69
2022-08-22T08:09:46.932Z,24.83
2022-08-22T08:12:15.873Z,24.89
2022-08-22T08:14:45.877Z,24.96
2022-08-22T08:17:32.340Z,25.02
2022-08-22T08:20:03.189Z,24.91
2022-08-22T08:22:30.386Z,24.79
2022-08-22T08:24:59.931Z,24.86
2022-08-22T08:27:50.447Z,24.81
2022-08-22T08:30:21.516Z,25.03
2022-08-22T08:32:57.352Z,25.26
2022-08-22T08:36:01.982Z,25.38
2022-08-22T08:38:36.468Z,25.57
2022-08-22T08:41:15.864Z,25.68
2022-08-22T08:44:22.587Z,25.82
2022-08-22T08:47:04.176Z,26.02
2022-08-22T08:49:30.853Z,26.52
2022-08-22T08:52:06.059Z,26.94
2022-08-22T08:54:44.768Z,27.10
2022-08-22T08:57:45.474Z,26.90
2022-08-22T09:00:30.314Z,27.00
2022-08-22T09:03:15.460Z,27.61
2022-08-22T09:05:54.291Z,27.16
2022-08-22T09:08:35.746Z,27.67
2022-08-22T09:11:31.035Z,28.23
2022-08-22T09:14:08.966Z,28.14
2022-08-22T09:17:03.063Z,28.04
2022-08-22T09:19:53.795Z,28.14
2022-08-22T09:22:26.029Z,28.26
2022-08-22T09:25:20.881Z,27.79
2022-08-22T09:27:59.511Z,27.48
2022-08-22T09:30:47.185Z,27.84
2022-08-22T09:33:24.894Z,28.22
2022-08-22T09:36:03.010Z,28.54
2022-08-22T09:38:59.797Z,28.30
2022-08-22T09:41:39.342Z,28.34
2022-08-22T09:44:24.313Z,28.52
2022-08-22T09:46:58.814Z,28.62
2022-08-22T09:49:35.695Z,28.39
2022-08-22T09:52:33.230Z,28.84
2022-08-22T09:55:01.194Z,29.30
2022-08-22T09:57:59.649Z,29.05
2022-08-22T10:00:55.136Z,29.23
2022-08-22T10:03:43.529Z,29.86
2022-08-22T10:06:45.202Z,30.09
2022-08-22T10:09:31.320Z,29.50
2022-08-22T10:12:05.043Z,29.09
2022-08-22T10:15:17.928Z,28.27
2022-08-22T10:18:14.778Z,27.80
2022-08-22T10:21:20.113Z,27.92
2022-08-22T10:23:55.999Z,27.62
2022-08-22T10:26:44.474Z,27.90
2022-08-22T10:29:36.866Z,27.56
2022-08-22T10:32:36.145Z,27.65
2022-08-22T10:35:29.536Z,28.09
2022-08-22T10:38:22.118Z,28.25
2022-08-22T10:41:26.022Z,28.63
2022-08-22T10:43:56.447Z,28.58
2022-08-22T10:46:36.797Z,28.48
2022-08-22T10:49:18.466Z,28.27
2022-08-22T10:52:06.499Z,28.36
2022-08-22T10:54:51.415Z,28.62
2022-08-22T10:57:31.017Z,28.39
2022-08-22T11:00:17.726Z,27.61
2022-08-22T11:03:00.827Z,28.12
2022-08-22T11:05:27.534Z,28.03
2022-08-22T11:08:33.087Z,28.17
2022-08-22T11:11:12.515Z,28.08
2022-08-22T11:13:48.100Z,27.79
2022-08-22T11:16:41.942Z,27.89
2022-08-22T11:19:15.969Z,27.85
2022-08-22T11:21:48.561Z,27.87
2022-08-22T11:24:53.913Z,27.86
2022-08-22T11:27:39.816Z,28.12
2022-08-22T11:30:20.514Z,28.13
2022-08-22T11:33:02.335Z,28.22
2022-08-22T11:35:41.695Z,28.13
2022-08-22T11:38:17.381Z,28.24
2022-08-22T11:41:10.261Z,28.09
2022-08-22T11:43:56.368Z,27.93
2022-08-22T11:46:43.121Z,27.98
2022-08-22T11:49:32.873Z,27.94
2022-08-22T11:52:13.014Z,28.19
2022-08-22T11:54:57.949Z,28.17
2022-08-22T11:57:34.106Z,28.43
2022-08-22T12:00:23.501Z,28.64
2022-08-22T12:03:17.971Z,28.42
2022-08-22T12:05:57.219Z,28.59
2022-08-22T12:08:33.667Z,28.52
2022-08-22T12:11:08.620Z,28.94
2022-08-22T12:14:02.410Z,28.72
2022-08-22T12:16:55.753Z,28.71
2022-08-22T12:19:34.820Z,28.96
2022-08-22T12:22:16.581Z,29.05
2022-08-22T12:25:11.357Z,28.99
2022-08-22T12:27:56.135Z,29.11
2022-08-22T12:30:32.924Z,28.66
2022-08-22T12:33:27.329Z,28.76
2022-08-22T12:36:20.217Z,28.67
2022-08-22T12:38:51.317Z,28.69
2022-08-22T12:41:46.508Z,28.55
2022-08-22T12:44:25.517Z,28.52
2022-08-22T12:47:09.824Z,28.48
2022-08-22T12:49:39.499Z,28.49
2022-08-22T12:52:41.278Z,28.50
2022-08-22T12:55:52.430Z,28.71
2022-08-22T12:59:00.482Z,28.92
2022-08-22T13:01:34.508Z,29.20
2022-08-22T13:04:02.744Z,28.82
2022-08-22T13:06:35.657Z,28.89
2022-08-22T13:09:13.882Z,28.95
2022-08-22T13:11:42.098Z,28.98
2022-08-22T13:14:15.654Z,28.87
2022-08-22T13:16:51.139Z,28.56
2022-08-22T13:19:22.236Z,28.74
2022-08-22T13:21:59.593Z,29.06
2022-08-22T13:24:51.800Z,29.30
2022-08-22T13:27:50.608Z,29.29
2022-08-22T13:30:21.896Z,29.90
2022-08-22T13:32:56.545Z,29.24
2022-08-22T13:35:44.658Z,29.41
2022-08-22T13:38:27.621Z,29.40
2022-08-22T13:40:56.886Z,29.36
2022-08-22T13:43:34.818Z,29.47
2022-08-22T13:46:05.052Z,29.49
2022-08-22T13:49:00.869Z,29.36
2022-08-22T13:51:48.214Z,29.17
2022-08-22T13:54:14.567Z,29.05
2022-08-22T13:56:52.883Z,29.03
2022-08-22T13:59:59.499Z,28.85
2022-08-22T14:02:46.834Z,28.78
2022-08-22T14:05:25.077Z,28.95
2022-08-22T14:08:13.007Z,29.02
2022-08-22T14:10:45.686Z,29.13
2022-08-22T14:13:24.256Z,29.38
2022-08-22T14:16:07.660Z,29.32
2022-08-22T14:18:44.381Z,29.89
2022-08-22T14:21:20.142Z,29.66
2022-08-22T14:23:50.437Z,29.82
2022-08-22T14:26:33.245Z,30.07
2022-08-22T14:29:11.909Z,30.23
2022-08-22T14:31:38.677Z,30.04
2022-08-22T14:34:10.575Z,29.89
2022-08-22T14:36:48.857Z,29.85
2022-08-22T14:39:41.543Z,29.39
2022-08-22T14:42:20.597Z,29.40
2022-08-22T14:45:21.976Z,29.36
2022-08-22T14:48:30.049Z,28.97
2022-08-22T14:51:04.100Z,28.86
2022-08-22T14:53:32.338Z,29.00
2022-08-22T14:56:01.395Z,28.92
2022-08-22T14:58:31.368Z,28.76
2022-08-22T15:01:09.905Z,28.57
2022-08-22T15:03:38.783Z,28.54
2022-08-22T15:06:12.506Z,28.31
2022-08-22T15:08:50.565Z,28.22
2022-08-22T15:11:22.671Z,28.29
2022-08-22T15:14:06.372Z,28.26
2022-08-22T15:16:35.176Z,28.32
2022-08-22T15:19:03.437Z,28.27
2022-08-22T15:21:33.598Z,28.23
2022-08-22T15:24:12.346Z,28.19
2022-08-22T15:26:50.156Z,28.05
2022-08-22T15:29:31.082Z,27.95
2022-08-22T15:32:02.315Z,28.00
2022-08-22T15:34:34.207Z,27.96
2022-08-22T15:37:10.987Z,28.06
2022-08-22T15:40:02.968Z,28.07
2022-08-22T15:42:45.868Z,27.93
2022-08-22T15:45:33.710Z,27.86
2022-08-22T15:48:04.534Z,27.65
2022-08-22T15:50:39.474Z,27.65
2022-08-22T15:53:24.201Z,27.57
2022-08-22T15:56:05.122Z,27.43
2022-08-22T15:58:37.101Z,27.45
2022-08-22T16:01:17.966Z,27.27
2022-08-22T16:03:58.112Z,27.21
2022-08-22T16:07:00.342Z,26.93
2022-08-22T16:09:44.337Z,26.86
2022-08-22T16:12:26.502Z,26.81
2022-08-22T16:14:53.474Z,26.68
2022-08-22T16:17:25.849Z,26.58
2022-08-22T16:20:19.326Z,26.49
2022-08-22T16:22:58.901Z,26.39
2022-08-22T16:25:50.253Z,26.40
2022-08-22T16:28:56.304Z,26.29
2022-08-22T16:31:27.470Z,26.30
2022-08-22T16:33:57.072Z,26.21
2022-08-22T16:36:51.116Z,26.20
2022-08-22T16:39:20.998Z,26.13
2022-08-22T16:41:54.262Z,26.03
2022-08-22T16:44:20.641Z,26.01
2022-08-22T16:46:49.577Z,25.95
2022-08-22T16:49:30.612Z,25.94
2022-08-22T16:52:24.962Z,25.87
2022-08-22T16:54:55.793Z,25.82
2022-08-22T16:57:37.474Z,25.78
2022-08-22T17:00:12.230Z,25.80
2022-08-22T17:02:59.903Z,25.74
2022-08-22T17:05:41.276Z,25.59
2022-08-22T17:08:30.670Z,25.49
2022-08-22T17:11:02.307Z,25.48
2022-08-22T17:13:40.098Z,25.54
2022-08-22T17:16:25.179Z,25.51
2022-08-22T17:19:05.016Z,25.51
2022-08-22T17:21:42.258Z,25.55
2022-08-22T17:24:44.841Z,25.56
2022-08-22T17:27:17.321Z,25.54
2022-08-22T17:29:43.787Z,25.51
2022-08-22T17:32:51.365Z,25.40
2022-08-22T17:35:44.299Z,25.26
2022-08-22T17:38:32.062Z,25.21
2022-08-22T17:41:23.383Z,25.03
2022-08-22T17:44:09.338Z,24.85
2022-08-22T17:46:47.739Z,24.69
2022-08-22T17:49:20.543Z,24.65
2022-08-22T17:51:54.966Z,24.45
2022-08-22T17:54:29.712Z,24.34
2022-08-22T17:57:05.773Z,24.13
2022-08-22T17:59:59.274Z,24.09
2022-08-22T18:02:33.269Z,24.02
2022-08-22T18:05:20.747Z,23.87
2022-08-22T18:07:56.640Z,23.97
2022-08-22T18:10:42.445Z,23.92
2022-08-22T18:13:34.087Z,23.78
2022-08-22T18:16:29.382Z,23.79
2022-08-22T18:19:13.414Z,23.72
2022-08-22T18:21:49.771Z,23.69
2022-08-22T18:24:20.145Z,23.62
2022-08-22T18:27:04.416Z,23.58
2022-08-22T18:29:43.019Z,23.52
2022-08-22T18:32:21.147Z,23.47
2022-08-22T18:35:07.697Z,23.34
2022-08-22T18:37:34.850Z,23.29
2022-08-22T18:40:26.947Z,23.10
2022-08-22T18:42:56.218Z,23.00
2022-08-22T18:45:44.724Z,22.92
2022-08-22T18:49:11.558Z,22.86
2022-08-22T18:51:38.400Z,22.76
2022-08-22T18:54:05.144Z,22.61
2022-08-22T18:56:31.537Z,22.57
2022-08-22T18:59:05.161Z,22.60
2022-08-22T19:01:47.249Z,22.55
2022-08-22T19:04:34.414Z,22.21
2022-08-22T19:07:45.188Z,22.16
2022-08-22T19:10:34.373Z,22.21
2022-08-22T19:13:37.195Z,22.03
2022-08-22T19:16:26.334Z,21.98
2022-08-22T19:18:58.689Z,21.98
2022-08-22T19:21:49.994Z,21.97
2022-08-22T19:24:19.175Z,21.98
2022-08-22T19:27:08.874Z,22.07
2022-08-22T19:29:35.895Z,22.09
2022-08-22T19:32:06.587Z,22.08
2022-08-22T19:34:42.131Z,22.06
2022-08-22T19:37:33.722Z,22.02
2022-08-22T19:40:10.046Z,21.97
2022-08-22T19:42:38.940Z,22.09
2022-08-22T19:45:29.381Z,21.87
2022-08-22T19:48:00.903Z,21.67
2022-08-22T19:50:34.875Z,21.52
2022-08-22T19:53:32.947Z,21.56
2022-08-22T19:56:13.532Z,21.49
2022-08-22T19:58:50.568Z,21.40
2022-08-22T20:01:31.638Z,21.38
2022-08-22T20:04:05.976Z,21.22
2022-08-22T20:06:46.257Z,21.34
2022-08-22T20:09:40.746Z,21.16
2022-08-22T20:12:18.270Z,21.26
2022-08-22T20:14:46.900Z,21.29
2022-08-22T20:17:25.299Z,21.16
2022-08-22T20:20:27.984Z,21.23
2022-08-22T20:23:00.726Z,21.21
2022-08-22T20:25:50.302Z,21.08
2022-08-22T20:28:25.737Z,21.16
2022-08-22T20:31:00.015Z,21.09
2022-08-22T20:33:33.899Z,21.07
2022-08-22T20:36:16.718Z,21.14
2022-08-22T20:39:00.177Z,20.97
2022-08-22T20:41:36.590Z,20.97
2022-08-22T20:44:24.885Z,21.01
2022-08-22T20:46:57.958Z,20.85
2022-08-22T20:49:34.614Z,20.85
2022-08-22T20:52:06.110Z,20.76
2022-08-22T20:54:35.827Z,20.78
2022-08-22T20:57:10.348Z,20.75
2022-08-22T20:59:40.096Z,20.72
2022-08-22T21:02:13.034Z,20.63
2022-08-22T21:04:56.948Z,20.60
2022-08-22T21:07:44.500Z,20.54
2022-08-22T21:10:37.710Z,20.68
2022-08-22T21:13:09.508Z,20.69
2022-08-22T21:15:43.062Z,20.71
2022-08-22T21:18:12.683Z,20.71
2022-08-22T21:20:39.671Z,20.55
2022-08-22T21:23:19.691Z,20.42
2022-08-22T21:25:57.294Z,20.38
2022-08-22T21:29:02.177Z,20.32
2022-08-22T21:31:42.598Z,20.25
2022-08-22T21:34:15.822Z,20.28
2022-08-22T21:36:42.820Z,20.28
2022-08-22T21:39:17.219Z,20.27
2022-08-22T21:41:49.910Z,20.29
2022-08-22T21:44:27.475Z,20.32
2022-08-22T21:46:55.577Z,20.14
2022-08-22T21:49:29.472Z,20.09
2022-08-22T21:51:56.339Z,20.06
2022-08-22T21:54:25.799Z,20.11
2022-08-22T21:56:55.278Z,20.03
2022-08-22T21:59:43.132Z,19.91
2022-08-22T22:02:39.814Z,19.81
2022-08-22T22:05:13.338Z,19.76
2022-08-22T22:07:42.804Z,19.61
2022-08-22T22:10:12.466Z,19.61
2022-08-22T22:12:40.989Z,19.44
2022-08-22T22:15:09.399Z,19.47
2022-08-22T22:17:35.860Z,19.40
2022-08-22T22:20:03.163Z,19.35
2022-08-22T22:22:29.678Z,19.24
2022-08-22T22:24:56.133Z,19.24
2022-08-22T22:27:22.730Z,19.23
2022-08-22T22:29:49.133Z,19.11
2022-08-22T22:32:15.650Z,19.06
2022-08-22T22:34:42.142Z,18.95
2022-08-22T22:37:11.905Z,18.90
2022-08-22T22:39:39.203Z,18.89
2022-08-22T22:42:06.438Z,18.88
2022-08-22T22:44:33.242Z,18.87
2022-08-22T22:47:02.271Z,18.85
2022-08-22T22:49:31.121Z,18.86
2022-08-22T22:51:59.910Z,18.69
2022-08-22T22:54:27.228Z,18.72
2022-08-22T22:56:54.725Z,18.74
2022-08-22T22:59:24.543Z,18.71
2022-08-22T23:02:07.513Z,18.79
2022-08-22T23:04:39.099Z,18.75
2022-08-22T23:07:08.023Z,18.65
2022-08-22T23:09:38.434Z,18.61
2022-08-22T23:12:13.378Z,18.50
2022-08-22T23:14:39.890Z,18.57
2022-08-22T23:17:07.215Z,18.60
2022-08-22T23:19:33.826Z,18.65
2022-08-22T23:22:01.136Z,18.47
2022-08-22T23:24:29.972Z,18.46
2022-08-22T23:26:57.096Z,18.54
2022-08-22T23:29:24.783Z,18.45
2022-08-22T23:31:54.230Z,18.29
2022-08-22T23:34:25.137Z,18.27
2022-08-22T23:36:54.413Z,18.31
2022-08-22T23:39:22.821Z,18.36
2022-08-22T23:41:49.983Z,18.21
2022-08-22T23:44:19.126Z,18.23
2022-08-22T23:46:45.893Z,18.19
2022-08-22T23:49:13.961Z,18.24
2022-08-22T23:51:41.743Z,18.22
2022-08-22T23:54:08.530Z,18.24
2022-08-22T23:56:40.631Z,18.30
2022-08-22T23:59:14.906Z,18.04
